createdAt,value
2022-12-19T00:00:00.510Z,1.6
2022-12-19T00:01:00.112Z,1.6
2022-12-19T00:02:00.729Z,1.6
2022-12-19T00:03:00.483Z,1.5
2022-12-19T00:03:59.921Z,1.6
2022-12-19T00:05:00.490Z,1.6
2022-12-19T00:06:00.098Z,1.6
2022-12-19T00:07:00.769Z,1.6
2022-12-19T00:08:01.794Z,1.5
2022-12-19T00:08:59.853Z,1.5
2022-12-19T00:10:00.440Z,1.5
2022-12-19T00:11:00.045Z,1.5
2022-12-19T00:12:00.599Z,1.6
2022-12-19T00:13:00.201Z,1.6
2022-12-19T00:14:00.767Z,1.6
2022-12-19T00:15:00.354Z,1.6
2022-12-19T00:16:00.641Z,1.6
2022-12-19T00:17:00.255Z,1.7
2022-12-19T00:17:59.853Z,1.7
2022-12-19T00:19:00.446Z,1.7
2022-12-19T00:20:00.034Z,1.7
2022-12-19T00:21:00.607Z,1.7
2022-12-19T00:22:00.193Z,1.6
2022-12-19T00:23:00.893Z,1.6
2022-12-19T00:24:00.553Z,1.7
2022-12-19T00:25:00.010Z,1.7
2022-12-19T00:26:00.583Z,1.7
2022-12-19T00:27:00.449Z,1.7
2022-12-19T00:28:00.756Z,1.6
2022-12-19T00:29:00.363Z,1.6
2022-12-19T00:30:00.724Z,1.6
2022-12-19T00:31:00.317Z,1.7
2022-12-19T00:31:59.931Z,1.7
2022-12-19T00:33:00.484Z,1.8
2022-12-19T00:34:00.091Z,1.8
2022-12-19T00:35:01.634Z,1.8
2022-12-19T00:36:00.287Z,1.8
2022-12-19T00:36:59.874Z,1.8
2022-12-19T00:38:00.449Z,1.8
2022-12-19T00:39:00.179Z,1.8
2022-12-19T00:40:00.626Z,1.8
2022-12-19T00:41:00.230Z,1.8
2022-12-19T00:42:00.783Z,1.8
2022-12-19T00:43:00.372Z,1.8
2022-12-19T00:44:00.039Z,1.8
2022-12-19T00:45:00.606Z,1.8
2022-12-19T00:46:00.273Z,1.8
2022-12-19T00:47:00.775Z,1.8
2022-12-19T00:48:00.356Z,1.8
2022-12-19T00:48:59.939Z,1.9
2022-12-19T00:50:00.554Z,1.9
2022-12-19T00:51:00.143Z,1.8
2022-12-19T00:52:00.717Z,1.8
2022-12-19T00:53:00.303Z,1.8
2022-12-19T00:53:59.888Z,1.8
2022-12-19T00:55:00.665Z,1.8
2022-12-19T00:56:00.021Z,1.8
2022-12-19T00:57:00.626Z,1.8
2022-12-19T00:58:00.599Z,1.8
2022-12-19T00:59:00.578Z,1.8
2022-12-19T01:00:00.182Z,1.9
2022-12-19T01:01:00.840Z,1.9
2022-12-19T01:02:00.629Z,1.9
2022-12-19T01:03:00.043Z,1.9
2022-12-19T01:04:29.700Z,1.9
2022-12-19T01:04:59.944Z,1.9
2022-12-19T01:06:00.531Z,1.9
2022-12-19T01:07:02.248Z,1.9
2022-12-19T01:08:00.722Z,1.9
2022-12-19T01:09:00.312Z,1.8
2022-12-19T01:09:59.896Z,1.8
2022-12-19T01:11:06.444Z,1.8
2022-12-19T01:12:00.144Z,1.9
2022-12-19T01:13:00.746Z,1.9
2022-12-19T01:14:00.336Z,1.9
2022-12-19T01:15:04.767Z,1.9
2022-12-19T01:16:00.464Z,1.9
2022-12-19T01:17:00.076Z,1.9
2022-12-19T01:18:00.647Z,2
2022-12-19T01:19:00.232Z,1.9
2022-12-19T01:20:00.771Z,1.9
2022-12-19T01:21:00.355Z,2.1
2022-12-19T01:21:59.941Z,2
2022-12-19T01:23:00.758Z,2
2022-12-19T01:24:00.210Z,2
2022-12-19T01:25:00.818Z,2.1
2022-12-19T01:26:00.416Z,2.1
2022-12-19T01:26:59.990Z,2.1
2022-12-19T01:28:00.684Z,2.2
2022-12-19T01:29:00.248Z,2.2
2022-12-19T01:30:00.801Z,2.3
2022-12-19T01:31:00.390Z,2.3
2022-12-19T01:31:59.996Z,2.2
2022-12-19T01:33:00.545Z,2.3
2022-12-19T01:34:00.149Z,2.3
2022-12-19T01:35:00.827Z,2.3
2022-12-19T01:36:00.346Z,2.3
2022-12-19T01:36:59.929Z,2.3
2022-12-19T01:38:07.633Z,2.4
2022-12-19T01:39:00.074Z,2.4
2022-12-19T01:40:00.679Z,2.4
2022-12-19T01:41:00.263Z,2.5
2022-12-19T01:42:00.386Z,2.5
2022-12-19T01:42:59.966Z,2.4
2022-12-19T01:44:00.700Z,2.5
2022-12-19T01:45:00.284Z,2.5
2022-12-19T01:45:59.891Z,2.4
2022-12-19T01:47:00.441Z,2.4
2022-12-19T01:48:00.028Z,2.4
2022-12-19T01:49:00.643Z,2.5
2022-12-19T01:50:00.226Z,2.5
2022-12-19T01:51:02.366Z,2.5
2022-12-19T01:52:00.165Z,2.5
2022-12-19T01:53:00.747Z,2.5
2022-12-19T01:54:00.347Z,2.6
2022-12-19T01:54:59.914Z,2.5
2022-12-19T01:56:00.514Z,2.5
2022-12-19T01:57:00.068Z,2.6
2022-12-19T01:58:00.636Z,2.6
2022-12-19T01:59:05.096Z,2.6
2022-12-19T02:00:00.892Z,2.6
2022-12-19T02:01:00.580Z,2.6
2022-12-19T02:02:00.180Z,2.7
2022-12-19T02:03:00.772Z,2.7
2022-12-19T02:04:00.276Z,2.7
2022-12-19T02:04:59.846Z,2.7
2022-12-19T02:06:00.449Z,2.7
2022-12-19T02:07:00.050Z,2.7
2022-12-19T02:08:00.585Z,2.7
2022-12-19T02:09:00.172Z,2.6
2022-12-19T02:10:00.761Z,2.7
2022-12-19T02:11:00.391Z,2.8
2022-12-19T02:12:00.017Z,2.8
2022-12-19T02:13:00.563Z,2.8
2022-12-19T02:14:00.152Z,2.8
2022-12-19T02:15:02.327Z,2.8
2022-12-19T02:16:00.389Z,2.8
2022-12-19T02:17:00.036Z,2.8
2022-12-19T02:18:00.539Z,2.8
2022-12-19T02:19:00.131Z,2.8
2022-12-19T02:20:00.705Z,2.9
2022-12-19T02:21:00.295Z,2.8
2022-12-19T02:21:59.881Z,2.8
2022-12-19T02:23:00.445Z,2.9
2022-12-19T02:24:00.055Z,2.9
2022-12-19T02:25:00.617Z,2.9
2022-12-19T02:26:00.268Z,2.8
2022-12-19T02:27:00.820Z,2.8
2022-12-19T02:28:00.409Z,2.8
2022-12-19T02:29:00.020Z,2.8
2022-12-19T02:30:00.592Z,2.9
2022-12-19T02:31:00.178Z,2.9
2022-12-19T02:32:00.890Z,2.9
2022-12-19T02:33:00.505Z,2.9
2022-12-19T02:34:00.007Z,2.9
2022-12-19T02:35:00.584Z,2.9
2022-12-19T02:36:00.167Z,2.9
2022-12-19T02:37:00.766Z,2.9
2022-12-19T02:37:59.898Z,3
2022-12-19T02:39:00.255Z,3
2022-12-19T02:40:00.533Z,2.9
2022-12-19T02:41:00.143Z,3
2022-12-19T02:42:00.700Z,3
2022-12-19T02:43:00.288Z,3
2022-12-19T02:43:59.867Z,3
2022-12-19T02:45:00.472Z,3
2022-12-19T02:46:00.113Z,3.1
2022-12-19T02:47:00.645Z,3.1
2022-12-19T02:48:03.425Z,3.2
2022-12-19T02:49:00.772Z,3.3
2022-12-19T02:50:00.378Z,3.3
2022-12-19T02:50:59.986Z,3.3
2022-12-19T02:52:00.552Z,3.3
2022-12-19T02:53:00.137Z,3.3
2022-12-19T02:54:00.730Z,3.3
2022-12-19T02:55:00.318Z,3.3
2022-12-19T02:55:59.916Z,3.3
2022-12-19T02:57:00.459Z,3.3
2022-12-19T02:58:00.111Z,3.3
2022-12-19T02:59:00.637Z,3.4
2022-12-19T03:00:00.224Z,3.3
2022-12-19T03:01:00.852Z,3.3
2022-12-19T03:02:00.607Z,3.3
2022-12-19T03:03:00.888Z,3.5
2022-12-19T03:04:00.127Z,3.5
2022-12-19T03:05:00.744Z,3.5
2022-12-19T03:06:00.841Z,3.4
2022-12-19T03:07:00.451Z,3.5
2022-12-19T03:08:00.077Z,3.5
2022-12-19T03:09:00.663Z,3.5
2022-12-19T03:10:00.280Z,3.5
2022-12-19T03:11:00.836Z,3.5
2022-12-19T03:12:00.450Z,3.6
2022-12-19T03:13:00.042Z,3.5
2022-12-19T03:14:00.617Z,3.6
2022-12-19T03:15:00.236Z,3.6
2022-12-19T03:16:00.781Z,3.7
2022-12-19T03:17:00.454Z,3.7
2022-12-19T03:18:00.030Z,3.7
2022-12-19T03:19:00.626Z,3.7
2022-12-19T03:20:00.361Z,3.7
2022-12-19T03:21:00.793Z,3.8
2022-12-19T03:22:00.386Z,3.8
2022-12-19T03:22:59.991Z,3.8
2022-12-19T03:24:00.579Z,3.8
2022-12-19T03:25:00.192Z,3.9
2022-12-19T03:26:00.755Z,3.8
2022-12-19T03:27:00.396Z,3.8
2022-12-19T03:27:59.916Z,3.9
2022-12-19T03:29:00.492Z,4
2022-12-19T03:30:00.130Z,3.9
2022-12-19T03:31:00.732Z,3.9
2022-12-19T03:32:00.330Z,4
2022-12-19T03:33:00.089Z,4
2022-12-19T03:34:00.484Z,4
2022-12-19T03:35:00.100Z,4
2022-12-19T03:36:00.798Z,4.1
2022-12-19T03:37:00.313Z,4.1
2022-12-19T03:37:59.889Z,4.1
2022-12-19T03:39:00.476Z,4.2
2022-12-19T03:40:00.093Z,4.2
2022-12-19T03:41:00.673Z,4.2
2022-12-19T03:42:00.305Z,4.2
2022-12-19T03:43:00.844Z,4.2
2022-12-19T03:44:00.497Z,4.2
2022-12-19T03:45:00.057Z,4.2
2022-12-19T03:46:00.669Z,4.1
2022-12-19T03:47:00.295Z,4.1
2022-12-19T03:48:00.858Z,4.1
2022-12-19T03:49:00.473Z,4.2
2022-12-19T03:50:00.061Z,4.2
2022-12-19T03:51:00.647Z,4.2
2022-12-19T03:52:00.376Z,4.2
2022-12-19T03:53:00.812Z,4.2
2022-12-19T03:54:00.428Z,4.2
2022-12-19T03:55:00.024Z,4.2
2022-12-19T03:56:00.606Z,4.2
2022-12-19T03:57:00.194Z,4.2
2022-12-19T03:58:00.787Z,4.2
2022-12-19T03:59:00.391Z,4.3
2022-12-19T03:59:59.963Z,4.3
2022-12-19T04:01:00.579Z,4.3
2022-12-19T04:02:00.381Z,4.3
2022-12-19T04:03:00.752Z,4.3
2022-12-19T04:04:00.381Z,4.2
2022-12-19T04:04:59.942Z,4.3
2022-12-19T04:06:00.508Z,4.3
2022-12-19T04:07:00.122Z,4.3
2022-12-19T04:08:00.800Z,4.3
2022-12-19T04:09:00.340Z,4.3
2022-12-19T04:09:59.894Z,4.3
2022-12-19T04:11:00.509Z,4.3
2022-12-19T04:12:00.119Z,4.3
2022-12-19T04:13:00.673Z,4.3
2022-12-19T04:14:00.282Z,4.3
2022-12-19T04:15:00.840Z,4.3
2022-12-19T04:16:00.490Z,4.3
2022-12-19T04:17:00.066Z,4.3
2022-12-19T04:18:00.629Z,4.3
2022-12-19T04:19:00.216Z,4.3
2022-12-19T04:20:00.792Z,4.2
2022-12-19T04:21:00.404Z,4.3
2022-12-19T04:21:59.993Z,4.3
2022-12-19T04:23:00.572Z,4.3
2022-12-19T04:24:00.211Z,4.3
2022-12-19T04:25:00.757Z,4.3
2022-12-19T04:26:00.365Z,4.3
2022-12-19T04:26:59.993Z,4.3
2022-12-19T04:28:00.502Z,4.3
2022-12-19T04:29:00.151Z,4.3
2022-12-19T04:30:00.714Z,4.3
2022-12-19T04:31:00.374Z,4.3
2022-12-19T04:31:59.893Z,4.3
2022-12-19T04:33:00.463Z,4.3
2022-12-19T04:34:00.055Z,4.3
2022-12-19T04:35:00.632Z,4.3
2022-12-19T04:36:00.223Z,4.3
2022-12-19T04:37:00.828Z,4.4
2022-12-19T04:38:00.439Z,4.4
2022-12-19T04:39:00.028Z,4.4
2022-12-19T04:40:00.751Z,4.4
2022-12-19T04:41:00.264Z,4.4
2022-12-19T04:42:00.863Z,4.4
2022-12-19T04:43:00.455Z,4.5
2022-12-19T04:44:00.050Z,4.5
2022-12-19T04:45:00.627Z,4.5
2022-12-19T04:46:00.212Z,4.5
2022-12-19T04:47:00.827Z,4.4
2022-12-19T04:48:00.436Z,4.5
2022-12-19T04:49:00.016Z,4.4
2022-12-19T04:50:00.584Z,4.5
2022-12-19T04:51:00.176Z,4.4
2022-12-19T04:52:00.750Z,4.5
2022-12-19T04:53:00.361Z,4.5
2022-12-19T04:53:59.946Z,4.5
2022-12-19T04:55:00.503Z,4.5
2022-12-19T04:56:00.213Z,4.6
2022-12-19T04:57:00.678Z,4.5
2022-12-19T04:58:00.266Z,4.5
2022-12-19T04:59:00.874Z,4.5
2022-12-19T05:00:00.608Z,4.5
2022-12-19T05:01:00.067Z,4.5
2022-12-19T05:02:00.772Z,4.4
2022-12-19T05:03:00.482Z,4.3
2022-12-19T05:04:04.170Z,4.3
2022-12-19T05:05:00.460Z,4.3
2022-12-19T05:06:00.047Z,4.3
2022-12-19T05:07:00.652Z,4.2
2022-12-19T05:08:00.242Z,4.2
2022-12-19T05:09:00.848Z,4.2
2022-12-19T05:10:00.469Z,4.2
2022-12-19T05:11:00.069Z,4.2
2022-12-19T05:12:00.760Z,4.2
2022-12-19T05:13:00.288Z,4.2
2022-12-19T05:13:59.876Z,4.1
2022-12-19T05:15:00.432Z,4.1
2022-12-19T05:16:00.080Z,4.2
2022-12-19T05:17:01.336Z,4.2
2022-12-19T05:18:00.324Z,4.2
2022-12-19T05:19:00.851Z,4.3
2022-12-19T05:20:00.446Z,4.3
2022-12-19T05:21:00.042Z,4.3
2022-12-19T05:22:00.646Z,4.3
2022-12-19T05:23:03.204Z,4.3
2022-12-19T05:24:00.425Z,4.3
2022-12-19T05:25:00.015Z,4.3
2022-12-19T05:26:00.642Z,4.4
2022-12-19T05:27:00.264Z,4.3
2022-12-19T05:27:59.984Z,4.3
2022-12-19T05:29:00.384Z,4.3
2022-12-19T05:29:59.975Z,4.4
2022-12-19T05:31:00.597Z,4.4
2022-12-19T05:32:00.230Z,4.4
2022-12-19T05:33:00.771Z,4.4
2022-12-19T05:34:00.378Z,4.5
2022-12-19T05:34:59.932Z,4.5
2022-12-19T05:36:00.505Z,4.5
2022-12-19T05:37:00.113Z,4.5
2022-12-19T05:38:00.678Z,4.5
2022-12-19T05:39:00.295Z,4.5
2022-12-19T05:40:00.875Z,4.6
2022-12-19T05:41:00.466Z,4.6
2022-12-19T05:42:00.058Z,4.5
2022-12-19T05:43:00.638Z,4.5
2022-12-19T05:44:00.387Z,4.5
2022-12-19T05:45:00.818Z,4.6
2022-12-19T05:46:00.430Z,4.6
2022-12-19T05:47:00.096Z,4.6
2022-12-19T05:48:01.530Z,4.6
2022-12-19T05:49:00.316Z,4.5
2022-12-19T05:50:00.845Z,4.6
2022-12-19T05:51:00.436Z,4.6
2022-12-19T05:52:00.036Z,4.5
2022-12-19T05:53:00.601Z,4.5
2022-12-19T05:54:00.208Z,4.6
2022-12-19T05:55:00.784Z,4.6
2022-12-19T05:56:00.372Z,4.6
2022-12-19T05:56:59.953Z,4.6
2022-12-19T05:58:00.203Z,4.6
2022-12-19T05:59:00.795Z,4.6
2022-12-19T06:00:00.525Z,4.6
2022-12-19T06:01:00.875Z,4.5
2022-12-19T06:02:00.661Z,4.5
2022-12-19T06:03:00.429Z,4.5
2022-12-19T06:04:00.841Z,4.5
2022-12-19T06:05:00.461Z,4.5
2022-12-19T06:06:00.109Z,4.4
2022-12-19T06:07:00.636Z,4.4
2022-12-19T06:08:00.225Z,4.4
2022-12-19T06:09:00.802Z,4.3
2022-12-19T06:10:00.413Z,4.4
2022-12-19T06:10:59.996Z,4.4
2022-12-19T06:12:00.590Z,4.3
2022-12-19T06:13:00.178Z,4.4
2022-12-19T06:14:00.751Z,4.3
2022-12-19T06:15:00.354Z,4.4
2022-12-19T06:16:00.089Z,4.4
2022-12-19T06:17:00.510Z,4.4
2022-12-19T06:18:00.099Z,4.5
2022-12-19T06:19:00.677Z,4.4
2022-12-19T06:20:00.264Z,4.4
2022-12-19T06:21:00.838Z,4.5
2022-12-19T06:22:00.459Z,4.6
2022-12-19T06:23:00.049Z,4.5
2022-12-19T06:24:00.642Z,4.6
2022-12-19T06:25:00.245Z,4.5
2022-12-19T06:26:00.842Z,4.6
2022-12-19T06:27:00.450Z,4.6
2022-12-19T06:28:00.077Z,4.6
2022-12-19T06:29:00.678Z,4.7
2022-12-19T06:30:00.271Z,4.7
2022-12-19T06:30:59.853Z,4.7
2022-12-19T06:32:00.668Z,4.7
2022-12-19T06:33:00.096Z,4.7
2022-12-19T06:34:00.659Z,4.7
2022-12-19T06:35:04.527Z,4.7
2022-12-19T06:36:00.795Z,4.7
2022-12-19T06:37:03.032Z,4.7
2022-12-19T06:38:01.092Z,4.7
2022-12-19T06:39:00.817Z,4.7
2022-12-19T06:40:00.311Z,4.8
2022-12-19T06:40:59.900Z,4.8
2022-12-19T06:42:00.480Z,4.7
2022-12-19T06:43:00.124Z,4.7
2022-12-19T06:44:00.678Z,4.7
2022-12-19T06:45:00.266Z,4.8
2022-12-19T06:46:00.942Z,4.7
2022-12-19T06:47:00.592Z,4.7
2022-12-19T06:48:00.249Z,4.8
2022-12-19T06:49:00.639Z,4.7
2022-12-19T06:50:00.228Z,4.8
2022-12-19T06:51:00.810Z,4.7
2022-12-19T06:52:02.134Z,4.8
2022-12-19T06:52:59.958Z,4.8
2022-12-19T06:54:00.239Z,4.8
2022-12-19T06:55:00.835Z,4.8
2022-12-19T06:56:00.435Z,4.8
2022-12-19T06:57:00.028Z,4.8
2022-12-19T06:58:00.614Z,4.8
2022-12-19T06:59:00.204Z,4.9
2022-12-19T07:00:00.775Z,5
2022-12-19T07:01:00.377Z,5
2022-12-19T07:02:00.084Z,5.1
2022-12-19T07:03:00.590Z,5
2022-12-19T07:04:00.314Z,5.1
2022-12-19T07:05:00.779Z,5.1
2022-12-19T07:06:00.390Z,5.1
2022-12-19T07:07:00.013Z,5.2
2022-12-19T07:08:00.597Z,5.1
2022-12-19T07:09:00.181Z,5.1
2022-12-19T07:10:00.828Z,5.1
2022-12-19T07:11:00.488Z,5.2
2022-12-19T07:12:00.002Z,5.2
2022-12-19T07:13:00.580Z,5.3
2022-12-19T07:14:00.194Z,5.3
2022-12-19T07:15:00.754Z,5.3
2022-12-19T07:16:00.409Z,5.3
2022-12-19T07:16:59.945Z,5.3
2022-12-19T07:18:00.531Z,5.3
2022-12-19T07:19:00.132Z,5.3
2022-12-19T07:20:00.819Z,5.4
2022-12-19T07:21:00.338Z,5.3
2022-12-19T07:21:59.932Z,5.4
2022-12-19T07:23:00.485Z,5.4
2022-12-19T07:24:00.104Z,5.4
2022-12-19T07:25:00.657Z,5.4
2022-12-19T07:26:00.246Z,5.4
2022-12-19T07:27:00.853Z,5.4
2022-12-19T07:28:00.443Z,5.5
2022-12-19T07:29:00.159Z,5.5
2022-12-19T07:30:00.630Z,5.5
2022-12-19T07:31:00.223Z,5.5
2022-12-19T07:32:00.900Z,5.4
2022-12-19T07:33:00.561Z,5.5
2022-12-19T07:34:00.092Z,5.5
2022-12-19T07:35:00.599Z,5.5
2022-12-19T07:36:00.309Z,5.6
2022-12-19T07:37:00.759Z,5.6
2022-12-19T07:38:00.365Z,5.6
2022-12-19T07:38:59.967Z,5.6
2022-12-19T07:40:00.502Z,5.7
2022-12-19T07:41:00.111Z,5.6
2022-12-19T07:42:00.671Z,5.7
2022-12-19T07:43:00.263Z,5.7
2022-12-19T07:44:00.853Z,5.7
2022-12-19T07:45:00.465Z,5.7
2022-12-19T07:46:00.136Z,5.8
2022-12-19T07:47:00.659Z,5.8
2022-12-19T07:48:00.259Z,5.8
2022-12-19T07:49:00.849Z,5.8
2022-12-19T07:50:00.326Z,5.8
2022-12-19T07:50:59.931Z,5.8
2022-12-19T07:52:00.608Z,5.8
2022-12-19T07:53:00.164Z,5.8
2022-12-19T07:54:00.752Z,5.8
2022-12-19T07:55:00.519Z,5.9
2022-12-19T07:55:59.960Z,5.9
2022-12-19T07:57:00.544Z,6
2022-12-19T07:58:00.129Z,6
2022-12-19T07:59:00.729Z,5.9
2022-12-19T08:00:00.370Z,6
2022-12-19T08:00:59.960Z,6.1
2022-12-19T08:02:00.663Z,6
2022-12-19T08:03:00.252Z,6.1
2022-12-19T08:04:00.775Z,6.1
2022-12-19T08:05:00.384Z,6.1
2022-12-19T08:05:59.962Z,6.2
2022-12-19T08:07:00.547Z,6.1
2022-12-19T08:08:00.263Z,6.1
2022-12-19T08:09:00.745Z,6.1
2022-12-19T08:10:00.339Z,6.1
2022-12-19T08:10:59.928Z,6.1
2022-12-19T08:12:00.478Z,6.2
2022-12-19T08:13:00.088Z,6.1
2022-12-19T08:14:00.650Z,6.2
2022-12-19T08:15:00.229Z,6.2
2022-12-19T08:16:00.826Z,6.2
2022-12-19T08:17:59.976Z,6.2
2022-12-19T08:19:00.559Z,6.2
2022-12-19T08:20:00.167Z,6.2
2022-12-19T08:21:00.734Z,6.1
2022-12-19T08:22:00.319Z,6.2
2022-12-19T08:22:59.889Z,6.2
2022-12-19T08:24:00.591Z,6.2
2022-12-19T08:25:00.143Z,6.2
2022-12-19T08:26:00.729Z,6.2
2022-12-19T08:27:00.316Z,6.2
2022-12-19T08:27:59.899Z,6.2
2022-12-19T08:29:00.472Z,6.2
2022-12-19T08:30:00.173Z,6.2
2022-12-19T08:31:00.722Z,6.2
2022-12-19T08:32:00.326Z,6.2
2022-12-19T08:32:59.888Z,6.2
2022-12-19T08:34:00.453Z,6.2
2022-12-19T08:35:00.041Z,6.3
2022-12-19T08:36:00.619Z,6.3
2022-12-19T08:37:00.242Z,6.3
2022-12-19T08:38:00.810Z,6.3
2022-12-19T08:39:00.404Z,6.3
2022-12-19T08:40:00.141Z,6.3
2022-12-19T08:41:00.582Z,6.4
2022-12-19T08:42:00.191Z,6.4
2022-12-19T08:43:00.767Z,6.4
2022-12-19T08:44:00.355Z,6.3
2022-12-19T08:44:59.944Z,6.4
2022-12-19T08:46:00.565Z,6.4
2022-12-19T08:47:00.168Z,6.4
2022-12-19T08:48:00.739Z,6.4
2022-12-19T08:49:00.326Z,6.4
2022-12-19T08:49:59.914Z,6.4
2022-12-19T08:51:00.488Z,6.4
2022-12-19T08:52:00.096Z,6.4
2022-12-19T08:53:00.685Z,6.4
2022-12-19T08:54:00.273Z,6.4
2022-12-19T08:55:00.577Z,6.4
2022-12-19T08:56:00.294Z,6.4
2022-12-19T08:56:59.888Z,6.5
2022-12-19T08:58:00.485Z,6.4
2022-12-19T08:59:00.388Z,6.4
2022-12-19T09:00:00.698Z,6.5
2022-12-19T09:01:05.166Z,6.5
2022-12-19T09:02:01.127Z,6.6
2022-12-19T09:03:00.133Z,6.6
2022-12-19T09:04:11.521Z,6.6
2022-12-19T09:05:39.570Z,6.6
2022-12-19T09:06:06.893Z,6.7
2022-12-19T09:07:00.489Z,6.6
2022-12-19T09:08:00.105Z,6.7
2022-12-19T09:09:00.810Z,6.7
2022-12-19T09:10:00.316Z,6.6
2022-12-19T09:10:59.882Z,6.6
2022-12-19T09:12:00.579Z,6.6
2022-12-19T09:13:00.131Z,6.6
2022-12-19T09:14:00.726Z,6.6
2022-12-19T09:15:00.333Z,6.6
2022-12-19T09:15:59.898Z,6.6
2022-12-19T09:17:00.504Z,6.7
2022-12-19T09:18:00.049Z,6.7
2022-12-19T09:19:00.693Z,6.7
2022-12-19T09:20:00.286Z,6.7
2022-12-19T09:20:59.852Z,6.7
2022-12-19T09:21:59.897Z,6.7
2022-12-19T09:23:00.499Z,6.8
2022-12-19T09:24:07.281Z,6.9
2022-12-19T09:25:00.250Z,6.9
2022-12-19T09:26:00.835Z,6.9
2022-12-19T09:27:00.421Z,6.9
2022-12-19T09:28:28.151Z,6.9
2022-12-19T09:29:00.573Z,6.9
2022-12-19T09:30:00.166Z,6.9
2022-12-19T09:31:00.072Z,7
2022-12-19T09:32:00.684Z,7
2022-12-19T09:32:59.988Z,7
2022-12-19T09:34:00.601Z,7.1
2022-12-19T09:35:00.193Z,7.2
2022-12-19T09:36:00.776Z,7.1
2022-12-19T09:37:00.373Z,7.2
2022-12-19T09:38:00.635Z,7.3
2022-12-19T09:39:00.333Z,7.2
2022-12-19T09:39:59.921Z,7.3
2022-12-19T09:41:00.513Z,7.3
2022-12-19T09:42:00.104Z,7.2
2022-12-19T09:43:00.678Z,7.3
2022-12-19T09:44:01.271Z,7.3
2022-12-19T09:45:00.727Z,7.3
2022-12-19T09:46:00.371Z,7.3
2022-12-19T09:46:59.960Z,7.3
2022-12-19T09:48:00.593Z,7.4
2022-12-19T09:49:00.176Z,7.4
2022-12-19T09:50:00.777Z,7.4
2022-12-19T09:51:09.798Z,7.4
2022-12-19T09:51:59.939Z,7.4
2022-12-19T09:53:00.539Z,7.4
2022-12-19T09:54:00.125Z,7.5
2022-12-19T09:55:00.697Z,7.6
2022-12-19T09:56:00.326Z,7.6
2022-12-19T09:56:59.884Z,7.6
2022-12-19T09:58:00.458Z,7.7
2022-12-19T09:58:59.997Z,7.7
2022-12-19T10:00:00.712Z,7.7
2022-12-19T10:01:00.577Z,7.7
2022-12-19T10:02:00.944Z,7.8
2022-12-19T10:03:00.749Z,7.7
2022-12-19T10:04:00.170Z,7.8
2022-12-19T10:05:10.391Z,7.9
2022-12-19T10:06:38.614Z,7.9
2022-12-19T10:07:16.425Z,7.8
2022-12-19T10:08:10.742Z,7.9
2022-12-19T10:09:38.618Z,7.9
2022-12-19T10:11:04.779Z,7.9
2022-12-19T10:12:25.394Z,7.9
2022-12-19T10:12:37.051Z,7.9
2022-12-19T10:13:01.070Z,8
2022-12-19T10:14:00.559Z,8.1
2022-12-19T10:15:00.299Z,8.1
2022-12-19T10:16:00.796Z,8.2
2022-12-19T10:17:23.507Z,8.1
2022-12-19T10:18:00.116Z,8.2
2022-12-19T10:19:00.705Z,8.2
2022-12-19T10:20:00.820Z,8.2
2022-12-19T10:21:00.410Z,8.2
2022-12-19T10:22:17.507Z,8.2
2022-12-19T10:23:00.637Z,8.2
2022-12-19T10:24:00.223Z,8.3
2022-12-19T10:25:00.810Z,8.2
2022-12-19T10:26:00.367Z,8.2
2022-12-19T10:26:59.986Z,8.2
2022-12-19T10:28:00.769Z,8.2
2022-12-19T10:29:00.274Z,8.2
2022-12-19T10:30:00.799Z,8.2
2022-12-19T10:31:04.567Z,8.2
2022-12-19T10:32:00.239Z,8.2
2022-12-19T10:33:00.650Z,8.1
2022-12-19T10:34:00.241Z,8
2022-12-19T10:35:00.844Z,8
2022-12-19T10:36:01.947Z,8.1
2022-12-19T10:37:23.167Z,8.1
2022-12-19T10:38:00.540Z,8.2
2022-12-19T10:39:00.150Z,8.2
2022-12-19T10:40:00.709Z,8.2
2022-12-19T10:41:00.329Z,8.3
2022-12-19T10:41:59.879Z,8.2
2022-12-19T10:43:01.100Z,8.2
2022-12-19T10:44:00.050Z,8.2
2022-12-19T10:45:00.646Z,8.2
2022-12-19T10:46:00.319Z,8.2
2022-12-19T10:47:00.866Z,8.1
2022-12-19T10:48:00.529Z,8.2
2022-12-19T10:49:00.100Z,8.2
2022-12-19T10:50:05.596Z,8.2
2022-12-19T10:51:02.548Z,8.2
2022-12-19T10:52:00.734Z,8.2
2022-12-19T10:53:00.364Z,8.3
2022-12-19T10:54:00.086Z,8.3
2022-12-19T10:55:00.619Z,8.3
2022-12-19T10:56:00.215Z,8.3
2022-12-19T10:57:00.799Z,8.4
2022-12-19T10:58:00.436Z,8.4
2022-12-19T10:59:00.117Z,8.4
2022-12-19T11:00:00.488Z,8.3
2022-12-19T11:01:00.097Z,8.4
2022-12-19T11:02:02.383Z,8.3
2022-12-19T11:03:00.365Z,8.3
2022-12-19T11:04:00.110Z,8.3
2022-12-19T11:05:00.580Z,8.3
2022-12-19T11:06:00.143Z,8.4
2022-12-19T11:07:00.761Z,8.3
2022-12-19T11:08:00.435Z,8.4
2022-12-19T11:09:00.003Z,8.5
2022-12-19T11:10:05.696Z,8.5
2022-12-19T11:11:20.784Z,8.6
2022-12-19T11:12:51.159Z,8.6
2022-12-19T11:15:28.707Z,8.5
2022-12-19T11:16:46.330Z,8.5
2022-12-19T11:17:06.890Z,8.5
2022-12-19T11:18:30.372Z,8.5
2022-12-19T11:20:00.720Z,8.4
2022-12-19T11:21:35.328Z,8.5
2022-12-19T11:22:28.688Z,8.5
2022-12-19T11:24:41.651Z,8.4
2022-12-19T11:29:15.764Z,8.4
2022-12-19T11:29:27.807Z,8.3
2022-12-19T11:29:28.226Z,8.3
2022-12-19T11:29:28.933Z,8.4
2022-12-19T11:29:29.104Z,8.3
2022-12-19T11:30:21.638Z,8.3
2022-12-19T11:30:21.905Z,8.3
2022-12-19T11:30:22.588Z,8.3
2022-12-19T11:30:24.600Z,8.3
2022-12-19T11:31:25.844Z,8.3
2022-12-19T11:33:00.223Z,8.2
2022-12-19T11:33:59.910Z,8.2
2022-12-19T11:35:00.436Z,8.3
2022-12-19T11:36:00.154Z,8.2
2022-12-19T11:37:00.616Z,8.3
2022-12-19T11:38:00.231Z,8.2
2022-12-19T11:39:00.788Z,8.2
2022-12-19T11:40:00.390Z,8.2
2022-12-19T11:40:59.983Z,8.3
2022-12-19T11:42:00.569Z,8.3
2022-12-19T11:43:41.726Z,8.3
2022-12-19T11:44:00.732Z,8.3
2022-12-19T11:45:00.325Z,8.3
2022-12-19T11:45:59.899Z,8.3
2022-12-19T11:47:00.467Z,8.3
2022-12-19T11:48:00.055Z,8.3
2022-12-19T11:49:00.652Z,8.3
2022-12-19T11:50:00.277Z,8.3
2022-12-19T11:51:00.847Z,8.3
2022-12-19T11:52:00.089Z,8.3
2022-12-19T11:53:05.817Z,8.3
2022-12-19T11:54:00.232Z,8.2
2022-12-19T11:55:00.824Z,8.2
2022-12-19T11:56:00.478Z,8.2
2022-12-19T11:57:00.102Z,8.2
2022-12-19T11:58:00.634Z,8.1
2022-12-19T11:59:00.229Z,8.2
2022-12-19T12:00:04.818Z,8.3
2022-12-19T12:01:00.342Z,8.2
2022-12-19T12:01:59.978Z,8.2
2022-12-19T12:03:00.560Z,8.3
2022-12-19T12:04:02.077Z,8.4
2022-12-19T12:05:00.809Z,8.3
2022-12-19T12:06:00.432Z,8.4
2022-12-19T12:07:00.155Z,8.4
2022-12-19T12:08:28.799Z,8.4
2022-12-19T12:09:27.118Z,8.5
2022-12-19T12:12:05.372Z,8.4
2022-12-19T12:13:52.056Z,8.5
2022-12-19T12:14:55.019Z,8.6
2022-12-19T12:15:28.110Z,8.6
2022-12-19T12:17:28.124Z,8.6
2022-12-19T12:19:32.147Z,8.6
2022-12-19T12:19:58.126Z,8.6
2022-12-19T12:23:06.670Z,8.5
2022-12-19T12:24:06.267Z,8.5
2022-12-19T12:24:20.719Z,8.6
2022-12-19T12:25:09.732Z,8.5
2022-12-19T12:29:27.615Z,8.5
2022-12-19T12:31:32.955Z,8.6
2022-12-19T12:31:33.393Z,8.6
2022-12-19T12:31:33.548Z,8.6
2022-12-19T12:31:34.513Z,8.6
2022-12-19T12:31:34.522Z,8.6
2022-12-19T12:31:34.976Z,8.7
2022-12-19T12:31:35.044Z,8.6
2022-12-19T12:31:35.321Z,8.7
2022-12-19T12:31:38.084Z,8.5
2022-12-19T12:35:07.795Z,8.7
2022-12-19T12:35:25.075Z,8.7
2022-12-19T12:35:25.162Z,8.6
2022-12-19T12:35:26.826Z,8.6
2022-12-19T12:36:48.729Z,8.5
2022-12-19T12:38:21.354Z,8.7
2022-12-19T12:39:00.595Z,8.7
2022-12-19T12:40:00.192Z,8.6
2022-12-19T12:41:00.725Z,8.6
2022-12-19T12:42:00.314Z,8.5
2022-12-19T12:42:59.895Z,8.6
2022-12-19T12:44:00.068Z,8.6
2022-12-19T12:45:00.711Z,8.5
2022-12-19T12:46:00.368Z,8.5
2022-12-19T12:46:59.899Z,8.5
2022-12-19T12:48:00.709Z,8.5
2022-12-19T12:49:00.138Z,8.4
2022-12-19T12:50:00.735Z,8.4
2022-12-19T12:51:00.320Z,8.4
2022-12-19T12:51:59.896Z,8.4
2022-12-19T12:53:00.496Z,8.4
2022-12-19T12:54:00.096Z,8.4
2022-12-19T12:55:00.665Z,8.5
2022-12-19T12:56:00.417Z,8.5
2022-12-19T12:57:00.451Z,8.6
2022-12-19T12:58:00.098Z,8.6
2022-12-19T12:59:00.706Z,8.5
2022-12-19T13:00:00.305Z,8.5
2022-12-19T13:00:59.920Z,8.6
2022-12-19T13:02:00.686Z,8.5
2022-12-19T13:03:00.290Z,8.6
2022-12-19T13:04:00.727Z,8.7
2022-12-19T13:05:00.322Z,8.7
2022-12-19T13:05:59.912Z,8.7
2022-12-19T13:07:00.507Z,8.7
2022-12-19T13:08:00.109Z,8.8
2022-12-19T13:09:00.680Z,8.8
2022-12-19T13:10:00.276Z,8.8
2022-12-19T13:10:59.858Z,8.8
2022-12-19T13:12:00.486Z,8.9
2022-12-19T13:13:00.127Z,8.8
2022-12-19T13:14:00.657Z,8.9
2022-12-19T13:15:00.244Z,8.8
2022-12-19T13:16:00.824Z,8.8
2022-12-19T13:17:00.509Z,8.8
2022-12-19T13:18:00.051Z,8.8
2022-12-19T13:19:00.628Z,8.9
2022-12-19T13:20:00.244Z,8.9
2022-12-19T13:21:00.836Z,8.9
2022-12-19T13:22:00.460Z,8.9
2022-12-19T13:23:00.050Z,8.9
2022-12-19T13:24:00.639Z,8.8
2022-12-19T13:25:00.228Z,8.8
2022-12-19T13:26:00.802Z,8.9
2022-12-19T13:27:00.412Z,8.8
2022-12-19T13:28:00.026Z,8.8
2022-12-19T13:29:00.131Z,8.8
2022-12-19T13:30:00.743Z,8.8
2022-12-19T13:31:13.473Z,8.8
2022-12-19T13:31:59.937Z,8.8
2022-12-19T13:33:00.502Z,8.8
2022-12-19T13:34:00.113Z,8.7
2022-12-19T13:35:06.356Z,8.8
2022-12-19T13:36:46.979Z,8.8
2022-12-19T13:39:52.579Z,8.8
2022-12-19T13:39:52.612Z,8.7
2022-12-19T13:39:53.745Z,8.8
2022-12-19T13:40:10.662Z,8.8
2022-12-19T13:40:59.965Z,8.7
2022-12-19T13:42:00.569Z,8.8
2022-12-19T13:43:09.613Z,8.8
2022-12-19T13:44:00.750Z,8.8
2022-12-19T13:45:00.339Z,8.9
2022-12-19T13:45:59.939Z,8.8
2022-12-19T13:47:00.511Z,8.8
2022-12-19T13:48:00.125Z,8.8
2022-12-19T13:49:00.705Z,8.8
2022-12-19T13:50:00.320Z,8.8
2022-12-19T13:50:59.895Z,8.8
2022-12-19T13:52:00.489Z,8.8
2022-12-19T13:53:00.114Z,8.8